createdAt,value
2023-11-24T00:01:22.477Z,11.13
2023-11-24T00:04:08.760Z,9.35
2023-11-24T00:06:57.236Z,8.23
2023-11-24T00:09:45.801Z,10.02
2023-11-24T00:12:31.937Z,9.75
2023-11-24T00:15:18.308Z,7.85
2023-11-24T00:18:07.544Z,7.25
2023-11-24T00:20:55.353Z,6.88
2023-11-24T00:24:05.783Z,8.88
2023-11-24T00:26:54.782Z,11.68
2023-11-24T00:29:42.398Z,11.23
2023-11-24T00:32:29.021Z,6.72
2023-11-24T00:35:16.618Z,7.68
2023-11-24T00:38:02.901Z,7.20
2023-11-24T00:40:49.567Z,7.03
2023-11-24T00:43:37.643Z,7.28
2023-11-24T00:46:23.878Z,6.47
2023-11-24T00:49:10.204Z,7.75
2023-11-24T00:51:57.161Z,9.43
2023-11-24T00:54:43.230Z,9.18
2023-11-24T00:57:29.397Z,9.45
2023-11-24T01:00:17.917Z,5.93
2023-11-24T01:03:04.513Z,7.53
2023-11-24T01:05:50.681Z,6.88
2023-11-24T01:08:37.453Z,7.78
2023-11-24T01:11:23.625Z,7.35
2023-11-24T01:14:09.801Z,10.90
2023-11-24T01:16:56.228Z,8.30
2023-11-24T01:19:43.843Z,11.15
2023-11-24T01:22:30.004Z,9.05
2023-11-24T01:25:16.103Z,8.05
2023-11-24T01:28:02.800Z,8.35
2023-11-24T01:30:49.979Z,10.55
2023-11-24T01:33:36.291Z,10.43
2023-11-24T01:36:22.297Z,9.07
2023-11-24T01:39:11.675Z,10.65
2023-11-24T01:41:58.198Z,10.18
2023-11-24T01:44:45.800Z,11.35
2023-11-24T01:47:32.018Z,13.60
2023-11-24T01:50:18.345Z,12.50
2023-11-24T01:53:05.099Z,13.90
2023-11-24T01:55:51.252Z,12.60
2023-11-24T01:58:38.855Z,9.00
2023-11-24T02:01:26.228Z,11.55
2023-11-24T02:04:12.681Z,13.63
2023-11-24T02:06:59.282Z,12.93
2023-11-24T02:09:45.159Z,8.95
2023-11-24T02:12:31.413Z,7.88
2023-11-24T02:15:17.735Z,11.05
2023-11-24T02:18:04.030Z,12.55
2023-11-24T02:20:50.665Z,11.52
2023-11-24T02:23:37.169Z,11.38
2023-11-24T02:26:23.095Z,14.32
2023-11-24T02:29:10.770Z,8.13
2023-11-24T02:31:56.799Z,11.60
2023-11-24T02:34:42.974Z,12.63
2023-11-24T02:37:29.201Z,14.25
2023-11-24T02:40:15.837Z,10.43
2023-11-24T02:43:02.133Z,12.75
2023-11-24T02:45:48.463Z,11.40
2023-11-24T02:48:34.794Z,11.32
2023-11-24T02:51:20.836Z,10.13
2023-11-24T02:54:08.043Z,15.95
2023-11-24T02:56:54.968Z,8.50
2023-11-24T02:59:41.470Z,10.10
2023-11-24T03:02:27.487Z,12.77
2023-11-24T03:05:13.645Z,15.35
2023-11-24T03:07:59.773Z,13.40
2023-11-24T03:10:46.813Z,12.63
2023-11-24T03:13:33.337Z,16.38
2023-11-24T03:16:19.640Z,11.48
2023-11-24T03:19:05.988Z,14.98
2023-11-24T03:21:52.651Z,13.68
2023-11-24T03:24:39.217Z,16.60
2023-11-24T03:27:25.376Z,13.63
2023-11-24T03:30:12.072Z,10.18
2023-11-24T03:32:58.605Z,10.10
2023-11-24T03:35:44.759Z,10.82
2023-11-24T03:38:31.276Z,12.48
2023-11-24T03:41:17.640Z,13.95
2023-11-24T03:44:22.227Z,13.70
2023-11-24T03:47:08.745Z,12.98
2023-11-24T03:49:55.790Z,12.85
2023-11-24T03:52:42.057Z,8.80
2023-11-24T03:55:28.223Z,11.68
2023-11-24T03:58:15.092Z,9.55
2023-11-24T04:01:02.898Z,9.45
2023-11-24T04:03:49.671Z,11.32
2023-11-24T04:06:35.589Z,10.25
2023-11-24T04:09:22.000Z,11.25
2023-11-24T04:12:08.170Z,7.90
2023-11-24T04:14:54.526Z,7.53
2023-11-24T04:17:40.843Z,9.52
2023-11-24T04:20:27.201Z,9.02
2023-11-24T04:23:14.800Z,8.25
2023-11-24T04:26:01.237Z,11.10
2023-11-24T04:28:47.142Z,9.13
2023-11-24T04:31:33.378Z,10.82
2023-11-24T04:34:19.665Z,8.93
2023-11-24T04:37:05.870Z,7.80
2023-11-24T04:39:53.694Z,12.82
2023-11-24T04:42:39.983Z,10.13
2023-11-24T04:45:26.119Z,11.38
2023-11-24T04:48:16.734Z,8.95
2023-11-24T04:51:03.394Z,7.95
2023-11-24T04:53:49.420Z,9.00
2023-11-24T04:56:35.812Z,8.50
2023-11-24T04:59:23.017Z,7.65
2023-11-24T05:02:09.490Z,9.50
2023-11-24T05:04:56.894Z,6.95
2023-11-24T05:07:43.177Z,6.57
2023-11-24T05:10:29.287Z,9.20
2023-11-24T05:13:15.649Z,7.38
2023-11-24T05:16:02.091Z,8.43
2023-11-24T05:18:50.605Z,8.30
2023-11-24T05:21:40.568Z,7.82
2023-11-24T05:24:27.999Z,8.60
2023-11-24T05:27:14.209Z,8.38
2023-11-24T05:30:00.434Z,9.73
2023-11-24T05:32:46.589Z,7.90
2023-11-24T05:35:33.038Z,7.07
2023-11-24T05:38:19.150Z,10.48
2023-11-24T05:41:06.560Z,8.15
2023-11-24T05:43:53.492Z,14.27
2023-11-24T05:46:40.270Z,11.18
2023-11-24T05:49:26.618Z,10.30
2023-11-24T05:52:16.958Z,8.52
2023-11-24T05:55:03.445Z,10.20
2023-11-24T05:57:49.583Z,8.38
2023-11-24T06:00:36.943Z,7.10
2023-11-24T06:03:22.952Z,7.32
2023-11-24T06:06:09.234Z,8.23
2023-11-24T06:08:55.646Z,8.18
2023-11-24T06:11:42.607Z,17.25
2023-11-24T06:14:28.615Z,12.52
2023-11-24T06:17:15.155Z,14.55
2023-11-24T06:20:01.454Z,34.25
2023-11-24T06:22:52.101Z,16.92
2023-11-24T06:25:38.349Z,50.90
2023-11-24T06:28:26.130Z,26.48
2023-11-24T06:31:18.004Z,20.20
2023-11-24T06:34:04.269Z,11.82
2023-11-24T06:36:51.161Z,12.32
2023-11-24T06:39:37.983Z,19.95
2023-11-24T06:42:24.256Z,27.50
2023-11-24T06:45:11.217Z,18.48
2023-11-24T06:47:57.756Z,30.08
2023-11-24T06:50:44.041Z,26.77
2023-11-24T06:53:30.012Z,21.38
2023-11-24T06:56:16.253Z,19.65
2023-11-24T06:59:02.552Z,25.73
2023-11-24T07:01:49.827Z,24.13
2023-11-24T07:04:36.255Z,26.55
2023-11-24T07:07:22.688Z,25.67
2023-11-24T07:10:13.072Z,33.03
2023-11-24T07:13:00.595Z,44.30
2023-11-24T07:15:47.385Z,27.95
2023-11-24T07:18:34.528Z,26.27
2023-11-24T07:21:21.001Z,42.17
2023-11-24T07:24:07.141Z,28.73
2023-11-24T07:26:55.149Z,18.73
2023-11-24T07:29:42.058Z,18.83
2023-11-24T07:32:30.143Z,19.20
2023-11-24T07:35:16.385Z,13.15
2023-11-24T07:38:06.683Z,20.65
2023-11-24T07:40:52.878Z,21.85
2023-11-24T07:43:39.213Z,17.90
2023-11-24T07:46:26.505Z,20.55
2023-11-24T07:49:13.170Z,21.33
2023-11-24T07:51:59.441Z,30.25
2023-11-24T07:54:47.774Z,30.65
2023-11-24T07:57:34.041Z,18.92
2023-11-24T08:00:20.773Z,22.40
2023-11-24T08:03:10.200Z,42.83
2023-11-24T08:05:56.992Z,24.33
2023-11-24T08:08:43.673Z,37.28
2023-11-24T08:11:29.811Z,21.08
2023-11-24T08:14:15.965Z,25.08
2023-11-24T08:17:02.482Z,27.45
2023-11-24T08:19:50.644Z,18.60
2023-11-24T08:22:40.257Z,10.93
2023-11-24T08:25:36.513Z,16.80
2023-11-24T08:28:44.328Z,16.50
2023-11-24T08:31:49.911Z,16.58
2023-11-24T08:34:36.406Z,22.52
2023-11-24T08:37:22.839Z,22.48
2023-11-24T08:40:24.840Z,11.90
2023-11-24T08:43:12.007Z,14.88
2023-11-24T08:45:59.505Z,18.27
2023-11-24T08:48:45.814Z,17.25
2023-11-24T08:51:35.531Z,46.53
2023-11-24T08:54:26.203Z,12.13
2023-11-24T08:57:18.861Z,15.00
2023-11-24T09:03:00.943Z,12.48
2023-11-24T09:05:50.677Z,14.95
2023-11-24T09:08:38.722Z,10.18
2023-11-24T09:11:31.031Z,11.55
2023-11-24T09:14:18.212Z,9.57
2023-11-24T09:17:04.846Z,21.20
2023-11-24T09:19:52.169Z,19.08
2023-11-24T09:22:45.789Z,14.00
2023-11-24T09:25:52.368Z,17.95
2023-11-24T09:28:48.030Z,14.57
2023-11-24T09:31:38.399Z,15.13
2023-11-24T09:34:27.816Z,17.60
2023-11-24T09:37:17.003Z,17.10
2023-11-24T09:40:17.320Z,12.88
2023-11-24T09:43:07.288Z,14.73
2023-11-24T09:45:57.433Z,17.45
2023-11-24T09:48:46.208Z,24.00
2023-11-24T09:51:34.255Z,29.00
2023-11-24T09:54:22.777Z,26.77
2023-11-24T09:57:09.009Z,22.50
2023-11-24T10:00:06.155Z,25.02
2023-11-24T10:02:54.118Z,33.63
2023-11-24T10:05:43.560Z,32.90
2023-11-24T10:08:34.912Z,27.48
2023-11-24T10:11:29.685Z,22.50
2023-11-24T10:14:17.222Z,27.65
2023-11-24T10:17:03.472Z,26.30
2023-11-24T10:19:50.974Z,27.10
2023-11-24T10:22:38.989Z,32.03
2023-11-24T10:25:25.182Z,33.45
2023-11-24T10:28:12.294Z,112.43
2023-11-24T10:30:58.884Z,31.20
2023-11-24T10:33:45.494Z,29.38
2023-11-24T10:36:31.727Z,37.40
2023-11-24T10:39:19.320Z,31.73
2023-11-24T10:42:05.552Z,101.20
2023-11-24T10:45:00.742Z,36.85
2023-11-24T10:48:09.015Z,35.70
2023-11-24T10:51:01.265Z,32.70
2023-11-24T10:53:59.404Z,31.95
2023-11-24T10:56:48.634Z,115.70
2023-11-24T10:59:36.252Z,39.60
2023-11-24T11:02:22.486Z,36.22
2023-11-24T11:05:27.735Z,52.92
2023-11-24T11:08:30.939Z,62.38
2023-11-24T11:11:41.359Z,247.48
2023-11-24T11:14:36.541Z,58.40
2023-11-24T11:17:29.335Z,45.90
2023-11-24T11:20:26.232Z,43.65
2023-11-24T11:23:23.292Z,41.13
2023-11-24T11:26:11.985Z,37.95
2023-11-24T11:29:03.291Z,47.10
2023-11-24T11:31:55.285Z,48.42
2023-11-24T11:37:32.594Z,40.85
2023-11-24T11:40:20.970Z,39.03
2023-11-24T11:43:11.604Z,41.00
2023-11-24T11:46:03.487Z,35.78
2023-11-24T11:48:51.568Z,35.72
2023-11-24T11:51:39.872Z,120.63
2023-11-24T11:54:29.717Z,30.88
2023-11-24T11:57:15.674Z,31.08
2023-11-24T12:00:12.122Z,30.27
2023-11-24T12:03:00.725Z,23.60
2023-11-24T12:05:50.087Z,24.35
2023-11-24T12:08:43.946Z,20.70
2023-11-24T12:11:30.539Z,20.70
2023-11-24T12:14:17.160Z,19.23
2023-11-24T12:17:04.682Z,16.15
2023-11-24T12:19:53.498Z,18.30
2023-11-24T12:22:40.111Z,22.48
2023-11-24T12:25:26.681Z,22.48
2023-11-24T12:28:18.844Z,22.95
2023-11-24T12:31:05.562Z,19.58
2023-11-24T12:33:51.901Z,14.32
2023-11-24T12:36:39.104Z,14.32
2023-11-24T12:39:36.713Z,17.60
2023-11-24T12:42:23.964Z,13.38
2023-11-24T12:45:12.004Z,17.25
2023-11-24T12:48:10.143Z,10.95
2023-11-24T12:50:58.161Z,13.73
2023-11-24T12:53:44.147Z,13.52
2023-11-24T12:56:32.542Z,10.00
2023-11-24T12:59:19.641Z,13.32
2023-11-24T13:02:05.727Z,12.57
2023-11-24T13:04:54.217Z,7.70
2023-11-24T13:07:43.212Z,8.45
2023-11-24T13:10:31.849Z,9.20
2023-11-24T13:13:17.846Z,9.27
2023-11-24T13:16:07.688Z,11.05
2023-11-24T13:18:58.845Z,15.23
2023-11-24T13:21:45.222Z,12.85
2023-11-24T13:24:32.812Z,12.93
2023-11-24T13:27:19.396Z,12.45
2023-11-24T13:30:11.897Z,63.05
2023-11-24T13:32:58.109Z,34.95
2023-11-24T13:35:44.177Z,23.20
2023-11-24T13:38:30.528Z,77.70
2023-11-24T13:41:17.559Z,59.00
2023-11-24T13:44:05.539Z,10.95
2023-11-24T13:46:54.043Z,10.52
2023-11-24T13:49:41.573Z,5.13
2023-11-24T13:52:29.327Z,7.25
2023-11-24T13:55:50.011Z,6.82
2023-11-24T13:58:39.735Z,3.30
2023-11-24T14:01:28.483Z,4.18
2023-11-24T14:04:17.948Z,4.43
2023-11-24T14:07:04.853Z,3.15
2023-11-24T14:09:50.930Z,4.07
2023-11-24T14:12:37.909Z,5.10
2023-11-24T14:15:28.781Z,12.73
2023-11-24T14:18:14.705Z,4.35
2023-11-24T14:21:00.765Z,4.25
2023-11-24T14:23:47.059Z,3.50
2023-11-24T14:26:36.564Z,4.78
2023-11-24T14:29:22.901Z,18.30
2023-11-24T14:32:09.017Z,5.72
2023-11-24T14:34:55.314Z,5.93
2023-11-24T14:37:41.848Z,18.42
2023-11-24T14:40:29.759Z,14.85
2023-11-24T14:43:16.452Z,4.03
2023-11-24T14:46:02.596Z,3.40
2023-11-24T14:48:51.600Z,3.25
2023-11-24T14:51:39.766Z,14.73
2023-11-24T14:54:30.892Z,5.97
2023-11-24T14:57:17.132Z,8.48
2023-11-24T15:00:04.122Z,3.72
2023-11-24T15:02:52.879Z,4.30
2023-11-24T15:05:42.759Z,6.55
2023-11-24T15:08:29.758Z,4.57
2023-11-24T15:11:20.741Z,13.70
2023-11-24T15:14:14.733Z,13.38
2023-11-24T15:17:06.026Z,3.35
2023-11-24T15:20:03.478Z,4.00
2023-11-24T15:23:00.252Z,4.90
2023-11-24T15:25:53.928Z,9.98
2023-11-24T15:28:41.645Z,26.83
2023-11-24T15:31:33.393Z,9.43
2023-11-24T15:34:19.367Z,81.25
2023-11-24T15:37:05.886Z,30.00
2023-11-24T15:39:58.283Z,37.17
2023-11-24T15:42:45.047Z,41.30
2023-11-24T15:45:31.762Z,54.40
2023-11-24T15:48:18.911Z,163.65
2023-11-24T15:51:06.238Z,63.67
2023-11-24T15:53:52.207Z,54.78
2023-11-24T15:56:40.349Z,53.05
2023-11-24T15:59:26.892Z,63.63
2023-11-24T16:02:16.893Z,53.90
2023-11-24T16:05:05.879Z,190.43
2023-11-24T16:07:55.843Z,206.82
2023-11-24T16:10:47.040Z,56.47
2023-11-24T16:13:35.614Z,152.07
2023-11-24T16:16:21.642Z,191.75
2023-11-24T16:19:08.543Z,53.13
2023-11-24T16:21:55.044Z,141.63
2023-11-24T16:24:41.659Z,59.70
2023-11-24T16:27:28.554Z,53.53
2023-11-24T16:30:15.368Z,201.07
2023-11-24T16:33:01.686Z,152.57
2023-11-24T16:35:51.815Z,166.45
2023-11-24T16:38:40.321Z,39.45
2023-11-24T16:41:26.870Z,112.68
2023-11-24T16:44:17.026Z,32.55
2023-11-24T16:47:05.375Z,139.98
2023-11-24T16:49:51.283Z,116.95
2023-11-24T16:52:47.375Z,121.50
2023-11-24T16:55:34.963Z,72.43
2023-11-24T16:58:22.112Z,39.50
2023-11-24T17:01:21.104Z,33.40
2023-11-24T17:04:09.176Z,37.00
2023-11-24T17:06:56.132Z,29.88
2023-11-24T17:09:47.693Z,52.70
2023-11-24T17:12:34.124Z,122.27
2023-11-24T17:15:23.749Z,43.47
2023-11-24T17:18:11.629Z,139.75
2023-11-24T17:20:58.673Z,142.45
2023-11-24T17:23:44.952Z,59.25
2023-11-24T17:26:32.470Z,51.45
2023-11-24T17:29:19.397Z,51.13
2023-11-24T17:32:06.242Z,53.25
2023-11-24T17:34:52.557Z,116.40
2023-11-24T17:37:42.924Z,33.97
2023-11-24T17:40:33.303Z,13.57
2023-11-24T17:43:37.054Z,16.58
2023-11-24T17:46:39.404Z,13.38
2023-11-24T17:49:34.983Z,126.32
2023-11-24T17:52:30.387Z,24.08
2023-11-24T17:58:04.993Z,29.77
2023-11-24T18:00:51.309Z,36.75
2023-11-24T18:03:37.617Z,26.75
2023-11-24T18:06:26.467Z,14.63
2023-11-24T18:09:14.741Z,49.38
2023-11-24T18:12:01.254Z,40.25
2023-11-24T18:14:47.228Z,27.20
2023-11-24T18:17:33.987Z,24.90
2023-11-24T18:20:22.192Z,106.97
2023-11-24T18:23:08.347Z,23.40
2023-11-24T18:25:55.003Z,20.60
2023-11-24T18:28:42.102Z,132.98
2023-11-24T18:31:31.279Z,145.13
2023-11-24T18:34:17.582Z,44.30
2023-11-24T18:37:06.730Z,30.00
2023-11-24T18:39:53.450Z,55.92
2023-11-24T18:42:40.043Z,55.28
2023-11-24T18:45:26.263Z,79.00
2023-11-24T18:48:11.970Z,48.88
2023-11-24T18:50:58.144Z,22.98
2023-11-24T18:53:46.443Z,19.08
2023-11-24T18:56:32.615Z,77.18
2023-11-24T18:59:18.794Z,22.27
2023-11-24T19:02:08.237Z,68.20
2023-11-24T19:04:55.202Z,24.27
2023-11-24T19:07:42.284Z,16.70
2023-11-24T19:10:28.950Z,26.42
2023-11-24T19:13:17.650Z,2.53
2023-11-24T19:16:04.162Z,2.15
2023-11-24T19:18:50.097Z,1.73
2023-11-24T19:21:35.953Z,1.13
2023-11-24T19:24:24.420Z,1.25
2023-11-24T19:27:10.335Z,1.52
2023-11-24T19:29:56.789Z,1.90
2023-11-24T19:32:42.766Z,1.88
2023-11-24T19:35:28.936Z,1.13
2023-11-24T19:38:15.099Z,1.08
2023-11-24T19:41:07.836Z,1.95
2023-11-24T19:43:54.048Z,1.77
2023-11-24T19:46:40.344Z,2.60
2023-11-24T19:49:27.070Z,2.22
2023-11-24T19:52:13.162Z,1.55
2023-11-24T19:55:02.479Z,4.55
2023-11-24T19:57:48.398Z,1.35
2023-11-24T20:00:35.796Z,1.67
2023-11-24T20:03:22.367Z,2.67
2023-11-24T20:06:08.935Z,2.47
2023-11-24T20:08:55.385Z,2.90
2023-11-24T20:11:41.594Z,5.93
2023-11-24T20:14:27.877Z,4.03
2023-11-24T20:17:14.792Z,5.53
2023-11-24T20:20:03.204Z,7.00
2023-11-24T20:22:50.141Z,4.57
2023-11-24T20:25:36.346Z,3.42
2023-11-24T20:28:22.895Z,8.88
2023-11-24T20:31:10.224Z,7.93
2023-11-24T20:33:56.941Z,6.50
2023-11-24T20:36:43.340Z,5.72
2023-11-24T20:39:30.385Z,17.75
2023-11-24T20:42:17.332Z,4.90
2023-11-24T20:45:04.502Z,3.47
2023-11-24T20:47:50.915Z,1.17
2023-11-24T20:50:37.323Z,2.45
2023-11-24T20:53:23.548Z,3.33
2023-11-24T20:56:10.675Z,2.75
2023-11-24T20:58:56.617Z,1.75
2023-11-24T21:01:43.056Z,2.10
2023-11-24T21:04:29.192Z,1.50
2023-11-24T21:07:17.390Z,1.02
2023-11-24T21:10:05.544Z,2.40
2023-11-24T21:12:52.889Z,2.13
2023-11-24T21:15:39.316Z,1.30
2023-11-24T21:18:28.461Z,1.80
2023-11-24T21:21:16.216Z,1.77
2023-11-24T21:24:02.695Z,1.65
2023-11-24T21:26:48.893Z,1.33
2023-11-24T21:29:34.702Z,1.50
2023-11-24T21:32:26.461Z,1.17
2023-11-24T21:35:13.334Z,0.88
2023-11-24T21:37:59.419Z,0.80
2023-11-24T21:40:46.403Z,1.23
2023-11-24T21:43:32.834Z,0.70
2023-11-24T21:46:22.278Z,1.40
2023-11-24T21:49:08.382Z,1.70
2023-11-24T21:51:54.495Z,4.50
2023-11-24T21:54:41.448Z,5.13
2023-11-24T21:57:29.676Z,3.65
2023-11-24T22:00:18.945Z,3.05
2023-11-24T22:03:05.915Z,3.42
2023-11-24T22:05:52.922Z,2.55
2023-11-24T22:08:39.068Z,1.25
2023-11-24T22:11:24.971Z,2.30
2023-11-24T22:14:10.898Z,1.77
2023-11-24T22:16:57.345Z,2.95
2023-11-24T22:19:43.582Z,5.03
2023-11-24T22:22:29.881Z,4.40
2023-11-24T22:25:16.133Z,3.10
2023-11-24T22:28:02.549Z,3.92
2023-11-24T22:30:48.756Z,2.95
2023-11-24T22:33:35.009Z,2.05
2023-11-24T22:36:22.033Z,6.10
2023-11-24T22:39:08.560Z,2.05
2023-11-24T22:41:54.617Z,1.30
2023-11-24T22:44:40.697Z,1.15
2023-11-24T22:47:26.784Z,1.20
2023-11-24T22:50:15.702Z,1.15
2023-11-24T22:53:01.955Z,1.92
2023-11-24T22:55:48.104Z,1.48
2023-11-24T22:58:34.586Z,1.17
2023-11-24T23:01:22.748Z,1.02
2023-11-24T23:04:11.396Z,0.90
2023-11-24T23:06:57.427Z,1.75
2023-11-24T23:09:45.522Z,1.42
2023-11-24T23:12:31.710Z,2.05
2023-11-24T23:15:17.946Z,1.88
2023-11-24T23:18:15.550Z,0.98
2023-11-24T23:21:03.369Z,0.70
2023-11-24T23:23:49.806Z,0.70
2023-11-24T23:26:35.662Z,0.80
2023-11-24T23:29:22.116Z,0.80
2023-11-24T23:32:08.368Z,0.90
2023-11-24T23:34:54.382Z,1.17
2023-11-24T23:37:44.127Z,1.27
2023-11-24T23:40:31.720Z,1.42
2023-11-24T23:43:19.414Z,0.80
2023-11-24T23:46:19.308Z,1.00
2023-11-24T23:49:06.775Z,0.90
2023-11-24T23:51:53.015Z,0.90
2023-11-24T23:54:40.647Z,1.23
2023-11-24T23:57:26.941Z,0.60
